Time;durP1;ratioP1;P1;durP2;ratioP2;P2;SDS_P1;SDS_P2;PMS_P1;PMS_P2;Temp;Humidity;BMP_temperature;BMP_pressure;BME280_temperature;BME280_humidity;BME280_pressure;Samples;Min_cycle;Max_cycle;Signal;HPM_P1;HPM_P2
2021/05/30 00:01:53;;;;;;;23.88;15.63;;;;;;;;;;5040078;28;20204;-67
2021/05/30 00:04:19;;;;;;;23.10;16.47;;;;;;;;;;5033597;28;20292;-67
2021/05/30 00:06:45;;;;;;;21.93;15.87;;;;;;;;;;5033267;28;20764;-67
2021/05/30 00:09:11;;;;;;;21.65;15.60;;;;;;;;;;5029963;28;20264;-67
2021/05/30 00:11:37;;;;;;;23.60;16.27;;;;;;;;;;5045536;28;20209;-67
2021/05/30 00:14:04;;;;;;;23.23;14.95;;;;;;;;;;5040911;28;20544;-67
2021/05/30 00:16:29;;;;;;;23.98;15.98;;;;;;;;;;5038774;28;20515;-67
2021/05/30 00:18:55;;;;;;;25.55;16.98;;;;;;;;;;5038064;28;20193;-67
2021/05/30 00:21:21;;;;;;;26.13;15.57;;;;;;;;;;5040579;28;20176;-67
2021/05/30 00:23:46;;;;;;;25.30;16.27;;;;;;;;;;5034993;28;20193;-67
2021/05/30 00:26:12;;;;;;;23.65;14.50;;;;;;;;;;5033647;28;20241;-67
2021/05/30 00:28:37;;;;;;;21.20;14.60;;;;;;;;;;5035468;28;20275;-67
2021/05/30 00:31:02;;;;;;;24.37;15.50;;;;;;;;;;5041002;28;20177;-67
2021/05/30 00:33:28;;;;;;;22.20;15.32;;;;;;;;;;5038008;28;20181;-67
2021/05/30 00:35:53;;;;;;;23.50;15.10;;;;;;;;;;5027782;28;20182;-67
2021/05/30 00:38:18;;;;;;;23.17;15.23;;;;;;;;;;5050844;28;20181;-67
2021/05/30 00:40:44;;;;;;;25.67;15.03;;;;;;;;;;5030857;28;20185;-67
2021/05/30 00:43:09;;;;;;;23.95;14.80;;;;;;;;;;5043682;28;20224;-67
2021/05/30 00:45:35;;;;;;;20.88;14.85;;;;;;;;;;5029854;28;20234;-67
2021/05/30 00:48:00;;;;;;;22.88;14.73;;;;;;;;;;5047369;28;20547;-67
2021/05/30 00:50:26;;;;;;;27.30;14.70;;;;;;;;;;5034079;28;20228;-67
2021/05/30 00:52:51;;;;;;;20.40;14.45;;;;;;;;;;5041396;28;20177;-67
2021/05/30 00:55:17;;;;;;;20.00;13.63;;;;;;;;;;5034448;28;20211;-66
2021/05/30 00:57:43;;;;;;;21.27;14.02;;;;;;;;;;5042106;28;20265;-66
2021/05/30 01:00:11;;;;;;;23.05;14.00;;;;;;;;;;5032585;28;20276;-66
2021/05/30 01:02:37;;;;;;;23.52;13.63;;;;;;;;;;5035166;28;20213;-66
2021/05/30 01:05:04;;;;;;;22.47;13.73;;;;;;;;;;5038743;28;20678;-69
2021/05/30 01:07:29;;;;;;;20.60;14.03;;;;;;;;;;5035580;28;20205;-67
2021/05/30 01:09:55;;;;;;;24.97;13.23;;;;;;;;;;5041907;28;20223;-67
2021/05/30 01:12:21;;;;;;;24.25;14.50;;;;;;;;;;5032364;28;20192;-67
2021/05/30 01:14:46;;;;;;;23.67;14.03;;;;;;;;;;5044353;28;20280;-67
2021/05/30 01:17:12;;;;;;;25.17;13.83;;;;;;;;;;5031676;28;20335;-67
2021/05/30 01:19:41;;;;;;;21.88;15.05;;;;;;;;;;5037449;28;20182;-67
2021/05/30 01:22:08;;;;;;;25.80;14.30;;;;;;;;;;5034636;28;20204;-67
2021/05/30 01:24:36;;;;;;;24.63;14.13;;;;;;;;;;5038368;28;20188;-67
2021/05/30 01:27:03;;;;;;;20.13;12.97;;;;;;;;;;5039118;28;20200;-67
2021/05/30 01:29:29;;;;;;;21.80;14.37;;;;;;;;;;5038716;28;20186;-67
2021/05/30 01:31:54;;;;;;;27.83;14.93;;;;;;;;;;5038420;28;20191;-67
2021/05/30 01:34:19;;;;;;;23.37;13.53;;;;;;;;;;5044605;28;20190;-67
2021/05/30 01:36:45;;;;;;;24.13;13.87;;;;;;;;;;5047465;28;20178;-67
2021/05/30 01:39:10;;;;;;;24.83;14.17;;;;;;;;;;5034137;28;20174;-67
2021/05/30 01:41:36;;;;;;;22.63;13.40;;;;;;;;;;5044436;28;20296;-68
2021/05/30 01:44:01;;;;;;;22.33;14.07;;;;;;;;;;5041592;28;20189;-66
2021/05/30 01:46:26;;;;;;;23.97;14.33;;;;;;;;;;5041136;28;20678;-67
2021/05/30 01:48:52;;;;;;;23.67;14.47;;;;;;;;;;5036046;28;20190;-67
2021/05/30 01:51:17;;;;;;;23.27;13.83;;;;;;;;;;5040639;28;20287;-68
2021/05/30 01:53:51;;;;;;;24.83;14.00;;;;;;;;;;5038893;28;20197;-68
2021/05/30 01:59:02;;;;;;;25.50;13.17;;;;;;;;;;5036606;28;20698;-67
2021/05/30 02:01:28;;;;;;;22.07;13.10;;;;;;;;;;5038362;28;20248;-68
2021/05/30 02:03:54;;;;;;;25.20;14.70;;;;;;;;;;5034267;28;20584;-70
2021/05/30 02:06:21;;;;;;;25.07;14.07;;;;;;;;;;5038811;28;20572;-67
2021/05/30 02:08:47;;;;;;;22.23;14.77;;;;;;;;;;5036121;28;20610;-67
2021/05/30 02:11:13;;;;;;;23.47;15.00;;;;;;;;;;5040685;28;20185;-67
2021/05/30 02:13:40;;;;;;;26.03;14.93;;;;;;;;;;5042880;28;20212;-67
2021/05/30 02:16:06;;;;;;;27.20;15.43;;;;;;;;;;5030047;28;20197;-67
2021/05/30 02:18:31;;;;;;;25.93;14.90;;;;;;;;;;5042843;28;20182;-67
2021/05/30 02:20:57;;;;;;;25.70;13.90;;;;;;;;;;5037947;28;20283;-67
2021/05/30 02:23:22;;;;;;;20.17;13.10;;;;;;;;;;5048448;28;20195;-67
2021/05/30 02:25:47;;;;;;;27.77;14.30;;;;;;;;;;5031390;28;20189;-67
2021/05/30 02:28:13;;;;;;;24.37;14.77;;;;;;;;;;5046173;28;20198;-67
2021/05/30 02:30:38;;;;;;;21.90;13.53;;;;;;;;;;5043818;28;20250;-67
2021/05/30 02:33:04;;;;;;;24.57;14.00;;;;;;;;;;5041997;28;20189;-71
2021/05/30 02:35:30;;;;;;;22.13;13.80;;;;;;;;;;5035851;28;20586;-67
2021/05/30 02:37:56;;;;;;;22.00;13.93;;;;;;;;;;5043448;28;20235;-67
2021/05/30 02:40:22;;;;;;;21.90;15.40;;;;;;;;;;5033742;28;20190;-67
2021/05/30 02:42:47;;;;;;;26.37;15.60;;;;;;;;;;5046500;28;20672;-67
2021/05/30 02:45:14;;;;;;;24.77;15.13;;;;;;;;;;5038327;28;20193;-67
2021/05/30 02:47:40;;;;;;;25.87;15.80;;;;;;;;;;5041834;28;20250;-67
2021/05/30 02:50:06;;;;;;;27.03;15.80;;;;;;;;;;5042538;28;20189;-67
2021/05/30 02:52:31;;;;;;;28.13;15.90;;;;;;;;;;5039278;28;20663;-67
2021/05/30 02:54:57;;;;;;;23.43;15.23;;;;;;;;;;5042279;28;20699;-67
2021/05/30 02:57:22;;;;;;;23.80;14.10;;;;;;;;;;5046461;28;20588;-67
2021/05/30 02:59:47;;;;;;;25.83;14.93;;;;;;;;;;5043113;28;20284;-66
2021/05/30 03:02:13;;;;;;;26.67;15.13;;;;;;;;;;5030692;28;20577;-67
2021/05/30 03:04:38;;;;;;;23.43;15.43;;;;;;;;;;5039699;28;20190;-67
2021/05/30 03:07:04;;;;;;;23.83;15.77;;;;;;;;;;5028498;28;20201;-67
2021/05/30 03:09:29;;;;;;;23.77;15.50;;;;;;;;;;5039124;28;20201;-67
2021/05/30 03:11:55;;;;;;;25.97;15.67;;;;;;;;;;5033067;28;20202;-67
2021/05/30 03:14:20;;;;;;;30.77;16.90;;;;;;;;;;5040745;28;20177;-67
2021/05/30 03:16:46;;;;;;;28.40;15.87;;;;;;;;;;5044328;28;20208;-67
2021/05/30 03:19:11;;;;;;;24.50;15.10;;;;;;;;;;5031955;28;20656;-67
2021/05/30 03:21:38;;;;;;;22.73;14.07;;;;;;;;;;5042211;28;20280;-67
2021/05/30 03:24:04;;;;;;;29.80;15.40;;;;;;;;;;5034151;28;20666;-67
2021/05/30 03:26:30;;;;;;;27.10;14.70;;;;;;;;;;5043139;28;20209;-66
2021/05/30 03:28:55;;;;;;;28.17;16.07;;;;;;;;;;5035761;28;20193;-67
2021/05/30 03:31:20;;;;;;;26.30;15.77;;;;;;;;;;5044940;28;20186;-67
2021/05/30 03:33:46;;;;;;;25.17;16.87;;;;;;;;;;5034885;28;20198;-67
2021/05/30 03:36:16;;;;;;;24.40;15.37;;;;;;;;;;5040732;28;20713;-67
2021/05/30 03:38:42;;;;;;;25.30;15.47;;;;;;;;;;5031309;28;20274;-67
2021/05/30 03:41:10;;;;;;;28.57;15.33;;;;;;;;;;5044797;28;20309;-67
2021/05/30 03:43:35;;;;;;;25.40;15.87;;;;;;;;;;5034353;28;20201;-67
2021/05/30 03:46:02;;;;;;;26.23;16.30;;;;;;;;;;5039376;28;20209;-67
2021/05/30 03:48:27;;;;;;;30.07;15.80;;;;;;;;;;5044907;28;20243;-67
2021/05/30 03:50:53;;;;;;;28.83;16.37;;;;;;;;;;5028506;28;20237;-67
2021/05/30 03:53:20;;;;;;;29.33;17.83;;;;;;;;;;5041258;28;20189;-67
2021/05/30 03:55:47;;;;;;;29.20;16.87;;;;;;;;;;5035798;28;20243;-67
2021/05/30 03:58:13;;;;;;;26.17;16.87;;;;;;;;;;5042679;28;20703;-67
2021/05/30 04:00:40;;;;;;;28.90;16.40;;;;;;;;;;5037266;28;20645;-67
2021/05/30 04:03:05;;;;;;;25.27;15.87;;;;;;;;;;5041762;28;20213;-67
2021/05/30 04:05:31;;;;;;;29.70;17.07;;;;;;;;;;5039737;28;20244;-67
2021/05/30 04:07:56;;;;;;;28.57;16.70;;;;;;;;;;5038033;28;20210;-67
2021/05/30 04:10:22;;;;;;;29.90;18.00;;;;;;;;;;5039677;28;20709;-67
2021/05/30 04:12:48;;;;;;;30.63;18.43;;;;;;;;;;5042827;28;20193;-67
2021/05/30 04:15:14;;;;;;;28.87;17.87;;;;;;;;;;5033037;28;20181;-67
2021/05/30 04:17:41;;;;;;;28.10;17.70;;;;;;;;;;5044678;28;20568;-67
2021/05/30 04:20:08;;;;;;;27.23;16.73;;;;;;;;;;5040795;28;20212;-67
2021/05/30 04:22:37;;;;;;;34.07;17.97;;;;;;;;;;5033775;28;20194;-67
2021/05/30 04:25:06;;;;;;;33.40;18.17;;;;;;;;;;5039406;28;20184;-67
2021/05/30 04:27:32;;;;;;;30.67;18.40;;;;;;;;;;5029536;28;20239;-67
2021/05/30 04:29:59;;;;;;;30.67;18.23;;;;;;;;;;5040507;28;20189;-67
2021/05/30 04:32:24;;;;;;;34.23;18.23;;;;;;;;;;5033137;28;20732;-67
2021/05/30 04:34:49;;;;;;;36.03;18.90;;;;;;;;;;5045396;28;20216;-67
2021/05/30 04:37:15;;;;;;;29.03;18.73;;;;;;;;;;5034142;28;20186;-67
2021/05/30 04:39:40;;;;;;;37.37;18.83;;;;;;;;;;5038940;28;20216;-67
2021/05/30 04:42:07;;;;;;;32.73;18.20;;;;;;;;;;5030228;28;20226;-67
2021/05/30 04:44:33;;;;;;;26.27;17.73;;;;;;;;;;5039355;28;20220;-67
2021/05/30 04:46:58;;;;;;;28.05;17.38;;;;;;;;;;5032476;28;20205;-67
2021/05/30 04:49:24;;;;;;;30.88;18.13;;;;;;;;;;5037273;28;20264;-67
2021/05/30 04:51:49;;;;;;;32.25;17.73;;;;;;;;;;5042523;28;20248;-68
2021/05/30 04:54:14;;;;;;;26.38;16.95;;;;;;;;;;5028981;28;20592;-68
2021/05/30 04:56:39;;;;;;;28.20;16.33;;;;;;;;;;5045467;28;20186;-67
2021/05/30 04:59:05;;;;;;;30.45;15.65;;;;;;;;;;5028073;28;20555;-68
2021/05/30 05:01:30;;;;;;;28.17;15.70;;;;;;;;;;5032731;28;20730;-67
2021/05/30 05:03:55;;;;;;;28.13;15.93;;;;;;;;;;5029579;28;20234;-67
2021/05/30 05:06:21;;;;;;;26.77;15.77;;;;;;;;;;5035863;28;20370;-67
2021/05/30 05:08:48;;;;;;;27.58;15.88;;;;;;;;;;5027162;28;20660;-67
2021/05/30 05:11:13;;;;;;;28.20;16.13;;;;;;;;;;5032595;28;20268;-68
2021/05/30 05:13:39;;;;;;;29.67;17.08;;;;;;;;;;5028120;28;20659;-68
2021/05/30 05:16:04;;;;;;;27.45;16.52;;;;;;;;;;5034837;28;20182;-68
2021/05/30 05:18:31;;;;;;;28.85;16.80;;;;;;;;;;5031542;28;20182;-67
2021/05/30 05:20:57;;;;;;;28.70;17.08;;;;;;;;;;5037219;28;20185;-68
2021/05/30 05:23:24;;;;;;;23.90;15.38;;;;;;;;;;5039426;28;20190;-67
2021/05/30 05:25:56;;;;;;;25.75;16.35;;;;;;;;;;5035601;28;20629;-68
2021/05/30 05:28:23;;;;;;;28.50;16.50;;;;;;;;;;5038786;28;20183;-68
2021/05/30 05:30:51;;;;;;;28.05;16.65;;;;;;;;;;5030923;28;20201;-67
2021/05/30 05:33:16;;;;;;;26.70;16.15;;;;;;;;;;5037721;28;20649;-67
2021/05/30 05:35:42;;;;;;;31.58;16.88;;;;;;;;;;5037301;28;20271;-67
2021/05/30 05:38:08;;;;;;;26.40;15.95;;;;;;;;;;5039253;28;20269;-67
2021/05/30 05:40:33;;;;;;;29.90;16.30;;;;;;;;;;5032329;28;24129;-68
2021/05/30 05:42:58;;;;;;;26.85;16.08;;;;;;;;;;5037737;28;20201;-68
2021/05/30 05:45:24;;;;;;;28.08;16.60;;;;;;;;;;5031513;28;20219;-67
2021/05/30 05:47:51;;;;;;;29.35;15.85;;;;;;;;;;5037891;28;20212;-68
2021/05/30 05:50:18;;;;;;;30.73;17.02;;;;;;;;;;5029755;28;20178;-67
2021/05/30 05:52:44;;;;;;;24.45;16.48;;;;;;;;;;5031938;28;20243;-67
2021/05/30 05:55:11;;;;;;;35.45;15.95;;;;;;;;;;5036910;28;20185;-67
2021/05/30 05:57:38;;;;;;;28.08;16.73;;;;;;;;;;5032208;28;20665;-67
2021/05/30 06:00:13;;;;;;;28.02;15.98;;;;;;;;;;5038785;28;20177;-68
2021/05/30 06:02:39;;;;;;;26.45;16.63;;;;;;;;;;5028650;28;20228;-67
2021/05/30 06:05:06;;;;;;;27.95;15.50;;;;;;;;;;5035602;28;20220;-67
2021/05/30 06:07:32;;;;;;;26.70;16.45;;;;;;;;;;5029292;28;20205;-66
2021/05/30 06:09:57;;;;;;;31.70;16.90;;;;;;;;;;5035730;28;20227;-67
2021/05/30 06:12:23;;;;;;;25.65;16.20;;;;;;;;;;5028851;28;20183;-67
2021/05/30 06:14:48;;;;;;;26.00;17.08;;;;;;;;;;5038881;28;20182;-68
2021/05/30 06:17:13;;;;;;;27.20;15.55;;;;;;;;;;5029975;28;20679;-67
2021/05/30 06:19:39;;;;;;;27.63;16.02;;;;;;;;;;5039584;28;20197;-67
2021/05/30 06:22:05;;;;;;;26.02;16.15;;;;;;;;;;5025858;28;20190;-67
2021/05/30 06:24:32;;;;;;;22.52;15.93;;;;;;;;;;5038952;28;20181;-67
2021/05/30 06:26:59;;;;;;;29.67;16.75;;;;;;;;;;5030745;28;20205;-67
2021/05/30 06:29:24;;;;;;;22.63;14.63;;;;;;;;;;5037727;28;20178;-67
2021/05/30 06:31:50;;;;;;;27.60;15.60;;;;;;;;;;5037759;28;20690;-67
2021/05/30 06:34:16;;;;;;;26.52;16.30;;;;;;;;;;5028410;28;20718;-67
2021/05/30 06:36:43;;;;;;;26.88;16.05;;;;;;;;;;5040490;28;20260;-67
2021/05/30 06:39:09;;;;;;;23.17;15.80;;;;;;;;;;5027546;28;20204;-67
2021/05/30 06:41:36;;;;;;;23.60;16.02;;;;;;;;;;5043974;28;20200;-67
2021/05/30 06:44:01;;;;;;;29.83;18.00;;;;;;;;;;5029113;28;20661;-67
2021/05/30 06:46:27;;;;;;;23.65;15.45;;;;;;;;;;4342749;28;10000791;-68
2021/05/30 06:48:52;;;;;;;29.20;16.42;;;;;;;;;;5027399;28;20190;-67
2021/05/30 06:51:20;;;;;;;24.58;15.27;;;;;;;;;;5034845;28;20233;-68
2021/05/30 06:53:47;;;;;;;21.30;15.95;;;;;;;;;;5031262;28;20211;-67
2021/05/30 06:56:12;;;;;;;25.80;15.98;;;;;;;;;;5038666;28;20181;-68
2021/05/30 06:58:39;;;;;;;22.85;15.30;;;;;;;;;;5029725;28;20185;-68
2021/05/30 07:01:04;;;;;;;30.73;16.25;;;;;;;;;;5042891;28;20228;-68
2021/05/30 07:03:30;;;;;;;26.92;16.33;;;;;;;;;;5034598;28;20536;-67
2021/05/30 07:05:55;;;;;;;23.67;15.73;;;;;;;;;;5032224;28;20185;-68
2021/05/30 07:08:20;;;;;;;21.58;15.05;;;;;;;;;;5034033;28;20221;-68
2021/05/30 07:10:46;;;;;;;26.08;16.58;;;;;;;;;;5030488;28;20190;-68
2021/05/30 07:13:11;;;;;;;22.05;15.77;;;;;;;;;;5034523;28;20178;-69
2021/05/30 07:15:36;;;;;;;23.88;15.75;;;;;;;;;;5023924;28;20184;-69
2021/05/30 07:18:02;;;;;;;22.40;14.95;;;;;;;;;;5035795;28;20267;-69
2021/05/30 07:20:27;;;;;;;24.13;15.45;;;;;;;;;;5028892;28;20194;-69
2021/05/30 07:22:52;;;;;;;26.67;16.70;;;;;;;;;;5036521;28;20268;-68
2021/05/30 07:25:18;;;;;;;24.70;15.23;;;;;;;;;;5024653;28;20193;-68
2021/05/30 07:27:43;;;;;;;23.83;14.98;;;;;;;;;;5036044;28;20210;-67
2021/05/30 07:30:09;;;;;;;28.13;16.23;;;;;;;;;;5027438;28;20204;-67
2021/05/30 07:32:35;;;;;;;26.42;16.30;;;;;;;;;;5032378;28;20193;-68
2021/05/30 07:35:01;;;;;;;20.73;15.20;;;;;;;;;;5035829;28;20664;-67
2021/05/30 07:37:26;;;;;;;24.90;15.30;;;;;;;;;;5034713;28;20189;-67
2021/05/30 07:39:51;;;;;;;23.83;15.57;;;;;;;;;;5036127;28;20180;-69
2021/05/30 07:42:17;;;;;;;20.85;14.88;;;;;;;;;;5034267;28;21072;-68
2021/05/30 07:44:43;;;;;;;23.92;16.00;;;;;;;;;;5043380;28;20193;-68
2021/05/30 07:47:08;;;;;;;25.00;16.52;;;;;;;;;;5030367;28;20198;-68
2021/05/30 07:49:34;;;;;;;25.40;15.70;;;;;;;;;;5049799;28;20186;-68
2021/05/30 07:52:00;;;;;;;22.17;15.20;;;;;;;;;;5030260;28;20287;-68
2021/05/30 07:54:26;;;;;;;22.95;15.35;;;;;;;;;;5045650;28;20177;-67
2021/05/30 07:56:51;;;;;;;26.20;16.30;;;;;;;;;;5032913;28;20180;-67
2021/05/30 07:59:18;;;;;;;21.25;14.85;;;;;;;;;;5041104;28;20271;-67
2021/05/30 08:01:44;;;;;;;25.45;15.38;;;;;;;;;;5033052;28;20271;-67
2021/05/30 08:04:09;;;;;;;22.17;14.95;;;;;;;;;;5036997;28;20186;-68
2021/05/30 08:06:35;;;;;;;21.00;14.68;;;;;;;;;;5040783;28;20206;-68
2021/05/30 08:09:00;;;;;;;22.85;13.93;;;;;;;;;;5035293;28;20204;-68
2021/05/30 08:11:26;;;;;;;22.60;14.70;;;;;;;;;;5036271;28;20553;-68
2021/05/30 08:13:52;;;;;;;23.45;14.05;;;;;;;;;;5025684;28;20324;-68
2021/05/30 08:16:19;;;;;;;23.45;14.40;;;;;;;;;;5037335;28;20202;-68
2021/05/30 08:18:44;;;;;;;21.40;14.27;;;;;;;;;;5033427;28;20197;-68
2021/05/30 08:21:10;;;;;;;20.92;14.32;;;;;;;;;;5039416;28;20214;-68
2021/05/30 08:23:38;;;;;;;21.40;15.55;;;;;;;;;;5033363;28;20280;-68
2021/05/30 08:26:04;;;;;;;17.50;12.82;;;;;;;;;;5041853;28;20208;-69
2021/05/30 08:28:29;;;;;;;20.88;14.70;;;;;;;;;;5034444;28;20203;-68
2021/05/30 08:30:54;;;;;;;22.60;15.38;;;;;;;;;;5039052;28;20190;-68
2021/05/30 08:33:20;;;;;;;24.00;15.75;;;;;;;;;;5028771;28;20185;-68
2021/05/30 08:35:45;;;;;;;22.48;15.85;;;;;;;;;;5038892;28;20689;-68
2021/05/30 08:38:10;;;;;;;23.25;14.85;;;;;;;;;;5035140;28;20197;-68
2021/05/30 08:40:36;;;;;;;22.38;14.68;;;;;;;;;;5029677;28;20563;-68
2021/05/30 08:43:03;;;;;;;18.65;14.48;;;;;;;;;;5037615;28;20610;-68
2021/05/30 08:45:28;;;;;;;19.23;14.00;;;;;;;;;;5035110;28;20550;-68
2021/05/30 08:47:54;;;;;;;20.95;14.90;;;;;;;;;;5042525;28;20299;-68
2021/05/30 08:50:19;;;;;;;20.30;14.50;;;;;;;;;;5031982;28;20196;-68
2021/05/30 08:52:45;;;;;;;21.48;15.13;;;;;;;;;;5037981;28;20193;-68
2021/05/30 08:55:11;;;;;;;21.15;15.40;;;;;;;;;;5030963;28;20492;-68
2021/05/30 08:57:37;;;;;;;20.05;14.68;;;;;;;;;;5039755;28;20205;-68
2021/05/30 09:00:04;;;;;;;24.80;14.60;;;;;;;;;;5028885;28;20587;-68
2021/05/30 09:02:29;;;;;;;21.00;15.13;;;;;;;;;;5040166;28;20213;-68
2021/05/30 09:05:00;;;;;;;22.58;15.60;;;;;;;;;;5034394;28;20197;-67
2021/05/30 09:07:47;;;;;;;26.05;14.45;;;;;;;;;;5040018;28;20198;-68
2021/05/30 09:10:25;;;;;;;18.25;13.98;;;;;;;;;;5039873;28;20256;-68
2021/05/30 09:13:07;;;;;;;19.52;13.60;;;;;;;;;;5039668;28;20183;-68
2021/05/30 09:15:53;;;;;;;18.42;14.02;;;;;;;;;;5033805;28;20185;-68
2021/05/30 09:18:23;;;;;;;16.20;13.23;;;;;;;;;;5033307;28;20178;-68
2021/05/30 09:20:53;;;;;;;18.58;12.82;;;;;;;;;;5029283;28;20634;-68
2021/05/30 09:23:47;;;;;;;20.35;13.20;;;;;;;;;;5035636;28;20670;-68
2021/05/30 09:26:20;;;;;;;16.45;12.88;;;;;;;;;;5030881;28;20228;-69
2021/05/30 09:29:08;;;;;;;16.88;12.95;;;;;;;;;;5042386;28;20187;-69
2021/05/30 09:31:52;;;;;;;18.85;13.77;;;;;;;;;;5033206;28;20602;-69
2021/05/30 09:34:37;;;;;;;21.80;13.57;;;;;;;;;;5041672;28;20201;-70
2021/05/30 09:37:04;;;;;;;17.50;12.77;;;;;;;;;;5032201;28;20196;-69
2021/05/30 09:39:44;;;;;;;17.15;13.32;;;;;;;;;;5047099;28;20603;-70
2021/05/30 09:42:36;;;;;;;20.23;13.88;;;;;;;;;;5033900;28;20200;-68
2021/05/30 09:45:06;;;;;;;18.65;12.45;;;;;;;;;;5039144;28;20186;-69
2021/05/30 09:47:40;;;;;;;17.10;12.07;;;;;;;;;;5029816;28;20217;-68
2021/05/30 09:50:11;;;;;;;17.67;12.38;;;;;;;;;;5040086;28;20185;-69
2021/05/30 09:52:44;;;;;;;16.15;11.50;;;;;;;;;;5034701;28;20752;-69
2021/05/30 09:55:15;;;;;;;15.57;12.20;;;;;;;;;;5041446;28;20618;-69
2021/05/30 09:57:40;;;;;;;15.68;11.02;;;;;;;;;;5036577;28;22956;-68
2021/05/30 10:00:21;;;;;;;15.40;11.57;;;;;;;;;;5045356;28;20201;-68
2021/05/30 10:02:46;;;;;;;17.17;12.05;;;;;;;;;;5037554;28;20718;-69
2021/05/30 10:05:12;;;;;;;15.98;11.45;;;;;;;;;;5042391;28;20268;-69
2021/05/30 10:07:38;;;;;;;16.55;10.80;;;;;;;;;;5043776;28;20262;-69
2021/05/30 10:10:04;;;;;;;14.57;11.07;;;;;;;;;;5032682;28;20657;-69
2021/05/30 10:12:30;;;;;;;15.35;11.05;;;;;;;;;;5042670;28;20185;-68
2021/05/30 10:14:55;;;;;;;16.05;11.70;;;;;;;;;;5036571;28;20190;-70
2021/05/30 10:17:22;;;;;;;15.43;11.40;;;;;;;;;;5039385;28;20240;-69
2021/05/30 10:19:48;;;;;;;15.98;12.02;;;;;;;;;;5033156;28;20189;-69
2021/05/30 10:22:17;;;;;;;15.40;10.70;;;;;;;;;;5042228;28;20193;-69
2021/05/30 10:24:43;;;;;;;16.83;11.68;;;;;;;;;;5032715;28;20190;-68
2021/05/30 10:27:25;;;;;;;16.98;11.75;;;;;;;;;;5040798;28;20679;-68
2021/05/30 10:30:10;;;;;;;18.02;11.88;;;;;;;;;;5038486;28;20188;-69
2021/05/30 10:32:41;;;;;;;18.55;11.30;;;;;;;;;;5039617;28;20608;-68
2021/05/30 10:35:20;;;;;;;15.30;9.45;;;;;;;;;;5031670;28;20182;-68
2021/05/30 10:37:56;;;;;;;15.43;10.02;;;;;;;;;;5039460;28;20209;-68
2021/05/30 10:40:22;;;;;;;12.18;8.35;;;;;;;;;;5035292;28;20197;-68
2021/05/30 10:43:12;;;;;;;15.63;10.10;;;;;;;;;;5038723;28;20268;-68
2021/05/30 10:45:44;;;;;;;13.77;10.55;;;;;;;;;;5037539;28;20213;-68
2021/05/30 10:48:19;;;;;;;12.48;9.63;;;;;;;;;;5039172;28;20214;-68
2021/05/30 10:51:09;;;;;;;15.70;11.00;;;;;;;;;;5032153;28;20321;-68
2021/05/30 10:53:43;;;;;;;18.85;11.27;;;;;;;;;;5035619;28;20192;-67
2021/05/30 10:56:34;;;;;;;16.85;10.85;;;;;;;;;;5032569;28;20185;-67
2021/05/30 10:59:03;;;;;;;13.15;9.90;;;;;;;;;;5043101;28;20273;-67
2021/05/30 11:01:34;;;;;;;13.68;10.15;;;;;;;;;;5032745;28;20213;-68
2021/05/30 11:07:18;;;;;;;12.73;10.02;;;;;;;;;;5031492;28;20689;-68
2021/05/30 11:09:50;;;;;;;13.63;9.98;;;;;;;;;;5039730;28;20550;-68
2021/05/30 11:12:27;;;;;;;16.00;10.40;;;;;;;;;;5032720;28;20321;-68
2021/05/30 11:15:12;;;;;;;13.68;9.95;;;;;;;;;;5041104;28;20519;-68
2021/05/30 11:17:45;;;;;;;15.35;10.77;;;;;;;;;;5034612;28;20185;-69
2021/05/30 11:20:12;;;;;;;17.45;10.85;;;;;;;;;;5038849;28;20185;-68
2021/05/30 11:22:50;;;;;;;15.55;10.07;;;;;;;;;;5028021;28;20638;-68
2021/05/30 11:25:19;;;;;;;19.98;10.35;;;;;;;;;;5038664;28;20208;-68
2021/05/30 11:28:09;;;;;;;17.23;9.85;;;;;;;;;;5045377;28;20205;-68
2021/05/30 11:30:35;;;;;;;14.35;8.88;;;;;;;;;;5039904;28;20296;-68
2021/05/30 11:33:01;;;;;;;14.70;10.60;;;;;;;;;;5023642;28;20269;-69
2021/05/30 11:35:29;;;;;;;14.52;10.05;;;;;;;;;;5041613;28;20192;-68
2021/05/30 11:37:55;;;;;;;13.32;9.45;;;;;;;;;;5034745;28;20193;-69
2021/05/30 11:40:22;;;;;;;11.60;9.15;;;;;;;;;;5040405;28;20288;-68
2021/05/30 11:42:47;;;;;;;13.18;10.05;;;;;;;;;;5027391;28;20181;-67
2021/05/30 11:45:29;;;;;;;13.57;10.43;;;;;;;;;;5037526;28;20548;-69
2021/05/30 11:48:06;;;;;;;12.63;9.68;;;;;;;;;;5032991;28;20271;-67
2021/05/30 11:50:34;;;;;;;11.77;9.40;;;;;;;;;;5037439;28;20189;-70
2021/05/30 11:52:59;;;;;;;11.45;8.48;;;;;;;;;;5033748;28;20221;-70
2021/05/30 11:55:25;;;;;;;15.55;9.55;;;;;;;;;;5027668;28;20208;-70
2021/05/30 11:57:50;;;;;;;11.73;8.43;;;;;;;;;;5035544;28;20193;-70
2021/05/30 12:00:16;;;;;;;11.65;8.15;;;;;;;;;;5026865;28;20667;-70
2021/05/30 12:02:42;;;;;;;13.93;8.65;;;;;;;;;;5033874;28;20205;-70
2021/05/30 12:05:11;;;;;;;10.57;8.48;;;;;;;;;;5027692;28;20653;-69
2021/05/30 12:07:37;;;;;;;12.35;8.95;;;;;;;;;;5036473;28;20243;-69
2021/05/30 12:10:05;;;;;;;12.30;8.75;;;;;;;;;;5028367;28;20216;-69
2021/05/30 12:12:35;;;;;;;12.15;9.20;;;;;;;;;;5035672;28;20818;-69
2021/05/30 12:15:16;;;;;;;11.52;9.65;;;;;;;;;;5025489;28;20934;-67
2021/05/30 12:17:58;;;;;;;12.27;8.73;;;;;;;;;;5036033;28;20565;-69
2021/05/30 12:20:32;;;;;;;15.15;9.93;;;;;;;;;;5029818;28;20280;-69
2021/05/30 12:23:18;;;;;;;11.18;8.65;;;;;;;;;;5033434;28;22028;-68
2021/05/30 12:26:11;;;;;;;10.00;7.25;;;;;;;;;;5025265;28;20315;-70
2021/05/30 12:28:39;;;;;;;9.52;7.85;;;;;;;;;;5035073;28;20639;-68
2021/05/30 12:31:23;;;;;;;8.93;6.72;;;;;;;;;;5027309;28;20209;-69
2021/05/30 12:33:49;;;;;;;9.30;7.03;;;;;;;;;;5035829;28;20189;-69
2021/05/30 12:36:33;;;;;;;7.38;6.35;;;;;;;;;;5027958;28;20199;-69
2021/05/30 12:39:25;;;;;;;10.63;6.47;;;;;;;;;;5035688;28;20189;-69
2021/05/30 12:42:04;;;;;;;9.70;7.07;;;;;;;;;;5027103;28;20633;-69
2021/05/30 12:44:42;;;;;;;8.02;6.10;;;;;;;;;;5034947;28;20177;-69
2021/05/30 12:47:09;;;;;;;8.82;5.63;;;;;;;;;;5027455;28;20232;-69
2021/05/30 12:49:38;;;;;;;7.70;6.32;;;;;;;;;;5036169;28;20949;-70
2021/05/30 12:52:04;;;;;;;11.43;5.32;;;;;;;;;;5032258;28;20225;-67
2021/05/30 12:54:31;;;;;;;7.28;4.82;;;;;;;;;;5035297;28;20271;-68
2021/05/30 12:56:57;;;;;;;7.18;5.15;;;;;;;;;;5030590;28;20182;-70
2021/05/30 12:59:24;;;;;;;6.90;5.13;;;;;;;;;;5033617;28;20645;-68
2021/05/30 13:01:52;;;;;;;9.10;5.15;;;;;;;;;;5032982;28;20680;-70
2021/05/30 13:04:21;;;;;;;6.88;5.00;;;;;;;;;;5032890;28;20189;-70
2021/05/30 13:07:01;;;;;;;7.40;4.93;;;;;;;;;;5034725;28;20596;-68
2021/05/30 13:09:40;;;;;;;10.02;5.10;;;;;;;;;;5036400;28;20200;-69
2021/05/30 13:12:25;;;;;;;6.97;4.72;;;;;;;;;;5033616;28;20519;-68
2021/05/30 13:15:02;;;;;;;7.75;5.10;;;;;;;;;;5039494;28;20189;-68
2021/05/30 13:17:28;;;;;;;8.95;4.90;;;;;;;;;;5030816;28;20184;-68
2021/05/30 13:20:00;;;;;;;8.10;5.05;;;;;;;;;;5036893;28;20181;-68
2021/05/30 13:22:26;;;;;;;8.50;4.70;;;;;;;;;;5038360;28;20208;-68
2021/05/30 13:24:51;;;;;;;8.20;4.05;;;;;;;;;;5028947;28;20224;-69
2021/05/30 13:27:30;;;;;;;6.55;4.70;;;;;;;;;;5037546;28;20208;-69
2021/05/30 13:30:09;;;;;;;7.63;4.97;;;;;;;;;;5031227;28;20212;-68
2021/05/30 13:32:36;;;;;;;6.68;4.80;;;;;;;;;;5032681;28;20427;-70
2021/05/30 13:35:03;;;;;;;7.97;4.93;;;;;;;;;;5030971;28;20705;-68
2021/05/30 13:37:28;;;;;;;11.55;4.93;;;;;;;;;;5040973;28;20323;-69
2021/05/30 13:39:55;;;;;;;11.18;5.13;;;;;;;;;;5033956;28;20673;-68
2021/05/30 13:42:21;;;;;;;6.47;4.45;;;;;;;;;;5032763;28;20182;-69
2021/05/30 13:44:47;;;;;;;6.72;4.72;;;;;;;;;;5033648;28;20659;-68
2021/05/30 13:47:12;;;;;;;6.55;4.68;;;;;;;;;;5038854;28;20202;-68
2021/05/30 13:49:37;;;;;;;6.38;4.57;;;;;;;;;;5031672;28;20208;-72
2021/05/30 13:52:03;;;;;;;7.00;4.00;;;;;;;;;;5031766;28;20253;-68
2021/05/30 13:54:28;;;;;;;4.60;3.53;;;;;;;;;;5034088;28;20284;-68
2021/05/30 13:56:54;;;;;;;8.85;3.90;;;;;;;;;;5036514;28;20661;-69
2021/05/30 13:59:19;;;;;;;5.25;2.90;;;;;;;;;;5040488;28;20545;-69
2021/05/30 14:01:45;;;;;;;5.22;3.20;;;;;;;;;;5033622;28;20628;-69
2021/05/30 14:04:11;;;;;;;4.93;3.08;;;;;;;;;;5042268;28;20187;-68
2021/05/30 14:06:37;;;;;;;5.10;3.05;;;;;;;;;;5035430;28;20681;-67
2021/05/30 14:09:04;;;;;;;3.97;2.95;;;;;;;;;;5042432;28;20208;-68
2021/05/30 14:11:30;;;;;;;4.60;2.53;;;;;;;;;;5030610;28;20198;-69
2021/05/30 14:13:55;;;;;;;4.22;2.95;;;;;;;;;;5043057;28;20620;-68
2021/05/30 14:16:21;;;;;;;6.95;3.60;;;;;;;;;;5035408;28;20194;-68
2021/05/30 14:18:46;;;;;;;7.97;3.83;;;;;;;;;;5038379;28;20504;-68
2021/05/30 14:21:12;;;;;;;5.25;3.33;;;;;;;;;;5035679;28;20195;-68
2021/05/30 14:23:37;;;;;;;6.20;3.63;;;;;;;;;;5044908;28;20200;-69
2021/05/30 14:26:02;;;;;;;3.47;3.17;;;;;;;;;;5035284;28;20579;-68
2021/05/30 14:28:31;;;;;;;7.70;3.67;;;;;;;;;;5047082;28;20343;-68
2021/05/30 14:30:57;;;;;;;4.25;2.90;;;;;;;;;;5035503;28;20185;-67
2021/05/30 14:33:22;;;;;;;4.28;2.75;;;;;;;;;;5037659;28;20557;-68